地図

経路データ

SID SEASON NUMBER BASIN SUBBASIN NAME ISO_TIME NATURE LAT LON WMO_WIND WMO_PRES WMO_AGENCY TRACK_TYPE DIST2LAND LANDFALL IFLAG USA_AGENCY USA_ATCF_ID USA_LAT USA_LON USA_RECORD USA_STATUS USA_WIND USA_PRES USA_SSHS USA_R34_NE USA_R34_SE USA_R34_SW USA_R34_NW USA_R50_NE USA_R50_SE USA_R50_SW USA_R50_NW USA_R64_NE USA_R64_SE USA_R64_SW USA_R64_NW USA_POCI USA_ROCI USA_RMW USA_EYE TOKYO_LAT TOKYO_LON TOKYO_GRADE TOKYO_WIND TOKYO_PRES TOKYO_R50_DIR TOKYO_R50_LONG TOKYO_R50_SHORT TOKYO_R30_DIR TOKYO_R30_LONG TOKYO_R30_SHORT TOKYO_LAND CMA_LAT CMA_LON CMA_CAT CMA_WIND CMA_PRES HKO_LAT HKO_LON HKO_CAT HKO_WIND HKO_PRES NEWDELHI_LAT NEWDELHI_LON NEWDELHI_GRADE NEWDELHI_WIND NEWDELHI_PRES NEWDELHI_CI NEWDELHI_DP NEWDELHI_POCI REUNION_LAT REUNION_LON REUNION_TYPE REUNION_WIND REUNION_PRES REUNION_TNUM REUNION_CI REUNION_RMW REUNION_R34_NE REUNION_R34_SE REUNION_R34_SW REUNION_R34_NW REUNION_R50_NE REUNION_R50_SE REUNION_R50_SW REUNION_R50_NW REUNION_R64_NE REUNION_R64_SE REUNION_R64_SW REUNION_R64_NW BOM_LAT BOM_LON BOM_TYPE BOM_WIND BOM_PRES BOM_TNUM BOM_CI BOM_RMW BOM_R34_NE BOM_R34_SE BOM_R34_SW BOM_R34_NW BOM_R50_NE BOM_R50_SE BOM_R50_SW BOM_R50_NW BOM_R64_NE BOM_R64_SE BOM_R64_SW BOM_R64_NW BOM_ROCI BOM_POCI BOM_EYE BOM_POS_METHOD BOM_PRES_METHOD NADI_LAT NADI_LON NADI_CAT NADI_WIND NADI_PRES WELLINGTON_LAT WELLINGTON_LON WELLINGTON_WIND WELLINGTON_PRES DS824_LAT DS824_LON DS824_STAGE DS824_WIND DS824_PRES TD9636_LAT TD9636_LON TD9636_STAGE TD9636_WIND TD9636_PRES TD9635_LAT TD9635_LON TD9635_WIND TD9635_PRES TD9635_ROCI NEUMANN_LAT NEUMANN_LON NEUMANN_CLASS NEUMANN_WIND NEUMANN_PRES MLC_LAT MLC_LON MLC_CLASS MLC_WIND MLC_PRES USA_GUST BOM_GUST BOM_GUST_PER REUNION_GUST REUNION_GUST_PER USA_SEAHGT USA_SEARAD_NE USA_SEARAD_SE USA_SEARAD_SW USA_SEARAD_NW STORM_SPEED STORM_DIR
1995032S10074 1995 4 SI MM GAIL 1995-01-31 12:00:00 TS -10.4000 73.9000 20 1004 reunion main 1969 1969 _____O________ -1 -10.4000 73.9000 2 20 1004 1.50000 1.50000 7 237
1995032S10074 1995 4 SI MM GAIL 1995-01-31 15:00:00 TS -10.5926 73.5926 main 2002 1885 _____P________ -1 -10.5926 73.5926 2 20 1004 15 226
1995032S10074 1995 4 SI MM GAIL 1995-01-31 18:00:00 TS -11.4800 72.7800 20 1004 reunion main 1879 1833 O____O______O_ jtwc_sh SH101995 -12.5000 72.0000 15 -1 -10.8000 73.3000 2 20 1004 1.50000 1.50000 -12.5000 72.0000 TC 15 16 222
1995032S10074 1995 4 SI MM GAIL 1995-01-31 21:00:00 TS -11.7899 72.4863 main 1833 1793 P____P______P_ SH101995 -12.5575 71.9500 15 -1 -11.0224 73.0225 2 22 1003 -12.5575 71.9500 TC 15 8 224
1995032S10074 1995 4 SI MM GAIL 1995-02-01 00:00:00 TS -12.0400 72.2200 25 1002 reunion main 1793 1763 O____O______O_ jtwc_sh SH101995 -12.6000 71.9000 15 -1 -11.2000 72.7000 2 25 1002 2.00000 2.00000 -12.6000 71.9000 TC 15 6 233
1995032S10074 1995 4 SI MM GAIL 1995-02-01 03:00:00 TS -12.1626 71.9758 main 1763 1745 P____P______P_ SH101995 -12.6150 71.8500 15 -1 -11.2577 72.2274 2 25 1002 -12.6150 71.8500 TC 15 4 253
1995032S10074 1995 4 SI MM GAIL 1995-02-01 06:00:00 TS -12.1667 71.8000 25 1002 reunion main 1745 1736 O____O______O_ jtwc_sh SH101995 -12.6000 71.8000 15 -1 -11.3000 71.8000 2 25 1002 2.00000 2.00000 -12.6000 71.8000 TC 15 3 266
1995032S10074 1995 4 SI MM GAIL 1995-02-01 09:00:00 TS -12.1833 71.6967 main 1736 1726 P____P______P_ SH101995 -12.5575 71.7500 17 -1 -11.4349 71.5900 2 25 1002 -12.5575 71.7500 TC 17 2 259
1995032S10074 1995 4 SI MM GAIL 1995-02-01 12:00:00 TS -12.2000 71.6333 25 1002 reunion main 1726 1726 O____O______O_ jtwc_sh SH101995 -12.5000 71.7000 20 -1 -11.6000 71.5000 2 25 1002 2.00000 2.00000 -12.5000 71.7000 TC 20 1 255
1995032S10074 1995 4 SI MM GAIL 1995-02-01 15:00:00 TS -12.2167 71.5758 main 1726 1717 P____P______P_ SH101995 -12.4500 71.6500 20 -1 -11.7500 71.4275 2 25 1002 -12.4500 71.6500 TC 20 1 251
1995032S10074 1995 4 SI MM GAIL 1995-02-01 18:00:00 TS -12.2333 71.5333 25 1002 reunion main 1717 1717 O____O______O_ jtwc_sh SH101995 -12.4000 71.6000 20 -1 -11.9000 71.4000 2 25 1002 2.00000 2.00000 -12.4000 71.6000 TC 20 1 248
1995032S10074 1995 4 SI MM GAIL 1995-02-01 21:00:00 TS -12.2500 71.4975 main 1717 1711 P____P______P_ SH101995 -12.3500 71.5500 20 -1 -12.0500 71.3925 2 25 1001 -12.3500 71.5500 TC 20 1 245
1995032S10074 1995 4 SI MM GAIL 1995-02-02 00:00:00 TS -12.2667 71.4667 25 1000 reunion main 1711 1702 O____O______O_ jtwc_sh SH101995 -12.3000 71.5000 20 -1 -12.2000 71.4000 2 25 1000 2.00000 2.00000 -12.3000 71.5000 TC 20 1 241
1995032S10074 1995 4 SI MM GAIL 1995-02-02 03:00:00 TS -12.2883 71.4333 main 1702 1702 P____P______P_ SH101995 -12.2500 71.4500 20 -1 -12.3650 71.4000 2 25 1000 -12.2500 71.4500 TC 20 1 245
1995032S10074 1995 4 SI MM GAIL 1995-02-02 06:00:00 TS -12.3000 71.4000 25 1000 reunion main 1702 1702 O____O______O_ jtwc_sh SH101995 -12.2000 71.4000 20 -1 -12.5000 71.4000 2 25 1000 2.00000 2.00000 -12.2000 71.4000 TC 20 1 268
1995032S10074 1995 4 SI MM GAIL 1995-02-02 09:00:00 TS -12.2908 71.3642 main 1702 1693 P____P______P_ SH101995 -12.1500 71.3425 22 -1 -12.5725 71.4075 2 25 1000 -12.1500 71.3425 TC 22 1 295
1995032S10074 1995 4 SI MM GAIL 1995-02-02 12:00:00 TS -12.2667 71.3333 25 1000 reunion main 1693 1693 O____O______O_ jtwc_sh SH101995 -12.1000 71.3000 25 -1 -12.6000 71.4000 2 25 1000 2.00000 2.00000 -12.1000 71.3000 TC 25 1 314
1995032S10074 1995 4 SI MM GAIL 1995-02-02 15:00:00 TS -12.2358 71.3067 main 1699 1699 P____P______P_ SH101995 -12.0500 71.2850 25 -1 -12.6075 71.3500 2 25 1000 -12.0500 71.2850 TC 25 1 327
1995032S10074 1995 4 SI MM GAIL 1995-02-02 18:00:00 TS -12.2000 71.3000 25 1000 reunion main 1699 1699 O____O______O_ jtwc_sh SH101995 -12.0000 71.3000 25 -1 -12.6000 71.3000 2 25 1000 2.00000 2.00000 -12.0000 71.3000 TC 25 1 13
1995032S10074 1995 4 SI MM GAIL 1995-02-02 21:00:00 TS -12.1692 71.3233 main 1699 1699 P____P______P_ SH101995 -11.9500 71.3425 25 -1 -12.6075 71.2850 2 25 1000 -11.9500 71.3425 TC 25 1 47
1995032S10074 1995 4 SI MM GAIL 1995-02-03 00:00:00 TS -12.1333 71.3667 25 1000 reunion main 1714 1714 O____O______O_ jtwc_sh SH101995 -11.9000 71.4000 25 -1 -12.6000 71.3000 2 25 1000 2.00000 2.00000 -11.9000 71.4000 TC 25 1 46
1995032S10074 1995 4 SI MM GAIL 1995-02-03 03:00:00 TS -12.0908 71.4016 main 1714 1714 P____P______P_ SH101995 -11.8500 71.4425 22 -1 -12.5725 71.3200 2 25 1000 -11.8500 71.4425 TC 22 1 43
1995032S10074 1995 4 SI MM GAIL 1995-02-03 06:00:00 TS -12.0333 71.4667 25 1000 reunion main 1729 1729 O____O______O_ jtwc_sh SH101995 -11.8000 71.5000 20 -1 -12.5000 71.4000 2 25 1000 2.00000 2.00000 -11.8000 71.5000 TC 20 2 52
1995032S10074 1995 4 SI MM GAIL 1995-02-03 09:00:00 TS -11.9500 71.5825 main 1739 1739 P____P______P_ SH101995 -11.7500 71.5850 20 -1 -12.3500 71.5776 2 25 1000 -11.7500 71.5850 TC 20 3 57
1995032S10074 1995 4 SI MM GAIL 1995-02-03 12:00:00 TS -11.8667 71.7333 25 1000 reunion main 1754 1754 O____O______O_ jtwc_sh SH101995 -11.7000 71.7000 20 -1 -12.2000 71.8000 2 25 1000 2.00000 2.00000 -11.7000 71.7000 TC 20 3 64
1995032S10074 1995 4 SI MM GAIL 1995-02-03 15:00:00 TS -11.8017 71.8925 main 1778 1778 P____P______P_ SH101995 -11.6350 71.8425 20 -1 -12.1350 71.9925 2 25 1000 -11.6350 71.8425 TC 20 3 73
1995032S10074 1995 4 SI MM GAIL 1995-02-03 18:00:00 TS -11.7667 72.0667 25 1000 reunion main 1796 1796 O____O______O_ jtwc_sh SH101995 -11.6000 72.0000 20 -1 -12.1000 72.2000 2 25 1000 2.00000 2.00000 -11.6000 72.0000 TC 20 4 85
1995032S10074 1995 4 SI MM GAIL 1995-02-03 21:00:00 TS -11.7733 72.2550 main 1815 1815 P____P______P_ SH101995 -11.6350 72.1575 20 -1 -12.0500 72.4500 2 25 1000 -11.6350 72.1575 TC 20 4 95
1995032S10074 1995 4 SI MM GAIL 1995-02-04 00:00:00 TS -11.8000 72.4333 25 1000 reunion main 1824 1824 O____O______O_ jtwc_sh SH101995 -11.7000 72.3000 20 -1 -12.0000 72.7000 2 25 1000 2.00000 2.00000 -11.7000 72.3000 TC 20 3 97
1995032S10074 1995 4 SI MM GAIL 1995-02-04 03:00:00 TS -11.8117 72.5792 main 1842 1842 P____P______P_ SH101995 -11.7425 72.4075 22 -1 -11.9500 72.9225 2 26 999 -11.7425 72.4075 TC 22 3 97
1995032S10074 1995 4 SI MM GAIL 1995-02-04 06:00:00 TS -11.8333 72.7000 28 998 reunion main 1851 1851 O____O______O_ jtwc_sh SH101995 -11.8000 72.5000 25 -1 -11.9000 73.1000 2 28 998 2.50000 2.50000 -11.8000 72.5000 TC 25 2 103
1995032S10074 1995 4 SI MM GAIL 1995-02-04 09:00:00 TS -11.8658 72.8150 main 1855 1855 P____P______P_ SH101995 -11.8850 72.6075 25 -1 -11.8275 73.2300 2 28 998 -11.8850 72.6075 TC 25 2 117
1995032S10074 1995 4 SI MM GAIL 1995-02-04 12:00:00 TS -11.9333 72.9000 28 998 reunion main 1864 1858 O____O______O_ jtwc_sh SH101995 -12.0000 72.7000 25 -1 -11.8000 73.3000 2 28 998 2.50000 2.50000 -12.0000 72.7000 TC 25 2 145
1995032S10074 1995 4 SI MM GAIL 1995-02-04 15:00:00 TS -12.0567 72.9533 main 1862 1856 P____P______P_ SH101995 -12.1425 72.7725 27 -1 -11.8850 73.3150 2 28 998 -12.1425 72.7725 TC 27 3 167
1995032S10074 1995 4 SI MM GAIL 1995-02-04 18:00:00 TS -12.2000 72.9667 28 998 reunion main 1856 1851 O____O______O_ jtwc_sh SH101995 -12.3000 72.8000 30 -1 -12.0000 73.3000 2 28 998 2.50000 2.50000 -12.3000 72.8000 TC 30 3 0
1995032S10074 1995 4 SI MM GAIL 1995-02-04 21:00:00 TS -12.3192 72.9483 main 1841 1836 P____P______P_ SH101995 -12.4500 72.7725 30 -1 -12.0575 73.3000 2 29 997 -12.4500 72.7725 TC 30 2 197
1995032S10074 1995 4 SI MM GAIL 1995-02-05 00:00:00 TS -12.4333 72.9000 30 996 reunion main 1836 1830 O____O______O_ jtwc_sh SH101995 -12.6000 72.7000 30 -1 -12.1000 73.3000 2 30 996 2.50000 2.50000 -12.6000 72.7000 TC 30 3 203
1995032S10074 1995 4 SI MM GAIL 1995-02-05 03:00:00 TS -12.5550 72.8483 main 1815 1809 P____P______P_ SH101995 -12.7575 72.6150 30 -1 -12.1500 73.3150 2 30 996 -12.7575 72.6150 TC 30 3 210
1995032S10074 1995 4 SI MM GAIL 1995-02-05 06:00:00 TS -12.6667 72.7667 30 996 reunion main 1809 1800 O____O______O_ jtwc_sh SH101995 -12.9000 72.5000 30 -1 -12.2000 73.3000 2 30 996 2.50000 2.50000 -12.9000 72.5000 TC 30 3 226
1995032S10074 1995 4 SI MM GAIL 1995-02-05 09:00:00 TS -12.7500 72.6433 main 1791 1776 P____P______P_ SH101995 -13.0075 72.3575 32 -1 -12.2350 73.2150 2 30 996 -13.0075 72.3575 TC 32 3 237
1995032S10074 1995 4 SI MM GAIL 1995-02-05 12:00:00 TS -12.8333 72.5000 30 996 reunion main 1776 1761 O____O______O_ jtwc_sh SH101995 -13.1000 72.2000 35 0 -12.3000 73.1000 2 30 996 2.50000 2.50000 -13.1000 72.2000 TC 35 3 234
1995032S10074 1995 4 SI MM GAIL 1995-02-05 15:00:00 TS -12.9375 72.3741 main 1761 1731 P____P______P_ SH101995 -13.1925 72.0500 40 0 -12.4275 73.0224 2 32 994 -13.1925 72.0500 TC 40 4 228
1995032S10074 1995 4 SI MM GAIL 1995-02-05 18:00:00 TS -13.0667 72.2333 35 992 reunion main 1731 1716 O____O______O_ jtwc_sh SH101995 -13.3000 71.9000 45 0 -12.6000 72.9000 3 35 992 3.00000 3.00000 -13.3000 71.9000 TC 45 4 226
1995032S10074 1995 4 SI MM GAIL 1995-02-05 21:00:00 TS -13.2208 72.0675 main 1716 1686 P____P______P_ SH101995 -13.4425 71.7575 50 0 -12.7775 72.6874 3 38 990 -13.4425 71.7575 TC 50 5 227
1995032S10074 1995 4 SI MM GAIL 1995-02-06 00:00:00 TS -13.4000 71.8667 42 988 reunion main 1686 1647 O____O______O_ jtwc_sh SH101995 -13.6000 71.6000 55 0 -13.0000 72.4000 3 42 988 3.50000 3.50000 -13.6000 71.6000 TC 55 6 228
1995032S10074 1995 4 SI MM GAIL 1995-02-06 03:00:00 TS -13.6000 71.6292 main 1647 1617 P____P______P_ SH101995 -13.7500 71.4150 60 0 -13.3000 72.0576 3 46 985 -13.7500 71.4150 TC 60 6 231
1995032S10074 1995 4 SI MM GAIL 1995-02-06 06:00:00 TS -13.8000 71.3667 50 982 reunion main 1617 1578 O____O______O_ jtwc_sh SH101995 -13.9000 71.2000 65 1 -13.6000 71.7000 3 50 982 4.00000 4.00000 -13.9000 71.2000 TC 65 6 234
1995032S10074 1995 4 SI MM GAIL 1995-02-06 09:00:00 TS -13.9641 71.1099 main 1578 1544 P____P______P_ SH101995 -14.0425 70.9649 65 1 -13.8074 71.3998 3 52 981 -14.0425 70.9649 TC 65 6 237
1995032S10074 1995 4 SI MM GAIL 1995-02-06 12:00:00 TS -14.1333 70.8333 55 980 reunion main 1544 1515 O____O______O_ jtwc_sh SH101995 -14.2000 70.7000 65 1 -14.0000 71.1000 3 55 980 4.00000 4.00000 -14.2000 70.7000 TC 65 7 236
1995032S10074 1995 4 SI MM GAIL 1995-02-06 15:00:00 TS -14.3349 70.5366 main 1505 1461 P____P______P_ SH101995 -14.3850 70.4149 67 1 -14.2349 70.7798 3 55 980 -14.3850 70.4149 TC 67 8 235
1995032S10074 1995 4 SI MM GAIL 1995-02-06 18:00:00 TS -14.5667 70.2000 55 980 reunion main 1461 1412 O____O______O_ jtwc_sh SH101995 -14.6000 70.1000 70 1 -14.5000 70.4000 3 55 980 4.00000 4.00000 -14.6000 70.1000 TC 70 9 235
1995032S10074 1995 4 SI MM GAIL 1995-02-06 21:00:00 TS -14.8233 69.8174 main 1412 1359 P____P______P_ SH101995 -14.8424 69.7649 70 1 -14.7850 69.9224 3 57 977 -14.8424 69.7649 TC 70 9 235
1995032S10074 1995 4 SI MM GAIL 1995-02-07 00:00:00 TS -15.1000 69.4000 60 975 reunion main 1359 1305 O____O______O_ jtwc_sh SH101995 -15.1000 69.4000 70 1 -15.1000 69.4000 3 60 975 4.50000 4.50000 -15.1000 69.4000 TC 70 10 236
1995032S10074 1995 4 SI MM GAIL 1995-02-07 03:00:00 TS -15.3809 68.9542 main 1305 1252 P____P______P_ SH101995 -15.3425 68.9999 70 1 -15.4576 68.8627 3 62 972 -15.3425 68.9999 TC 70 10 236
1995032S10074 1995 4 SI MM GAIL 1995-02-07 06:00:00 TS -15.6667 68.5333 65 970 reunion main 1242 1204 O____O______O_ jtwc_sh SH101995 -15.6000 68.6000 70 1 -15.8000 68.4000 4 65 970 4.50000 4.50000 -15.6000 68.6000 TC 70 9 232
1995032S10074 1995 4 SI MM GAIL 1995-02-07 09:00:00 TS -15.9524 68.1916 main 1199 1160 P____P______P_ SH101995 -15.8924 68.2349 72 1 -16.0723 68.1048 4 65 970 -15.8924 68.2349 TC 72 8 227
1995032S10074 1995 4 SI MM GAIL 1995-02-07 12:00:00 TS -16.2333 67.9000 65 970 reunion main 1160 1127 O____O______O_ jtwc_sh SH101995 -16.2000 67.9000 75 1 -16.3000 67.9000 4 65 970 4.50000 4.50000 -16.2000 67.9000 TC 75 8 224
1995032S10074 1995 4 SI MM GAIL 1995-02-07 15:00:00 TS -16.4924 67.6406 main 1117 1084 P____P______P_ SH101995 -16.4999 67.5924 75 1 -16.4773 67.7371 4 65 970 -16.4999 67.5924 TC 75 7 224
1995032S10074 1995 4 SI MM GAIL 1995-02-07 18:00:00 TS -16.7667 67.3667 65 970 reunion main 1084 1032 O____O______O_ jtwc_sh SH101995 -16.8000 67.3000 75 1 -16.7000 67.5000 4 65 970 4.50000 4.50000 -16.8000 67.3000 TC 75 8 225
1995032S10074 1995 4 SI MM GAIL 1995-02-07 21:00:00 TS -17.0900 67.0150 main 1032 990 P____P______P_ SH101995 -17.0999 67.0074 75 1 -17.0702 67.0303 4 62 972 -17.0999 67.0074 TC 75 10 226
1995032S10074 1995 4 SI MM GAIL 1995-02-08 00:00:00 TS -17.4333 66.6333 60 975 reunion main 981 936 O____O______O_ jtwc_sh SH101995 -17.4000 66.7000 75 1 -17.5000 66.5000 3 60 975 4.50000 4.50000 -17.4000 66.7000 TC 75 10 226
1995032S10074 1995 4 SI MM GAIL 1995-02-08 03:00:00 TS -17.7791 66.2691 main 936 885 P____P______P_ SH101995 -17.7074 66.3649 75 1 -17.9224 66.0774 3 60 975 -17.7074 66.3649 TC 75 10 226
1995032S10074 1995 4 SI MM GAIL 1995-02-08 06:00:00 TS -18.1000 65.9000 60 975 reunion main 885 838 O____O______O_ jtwc_sh SH101995 -18.0000 66.0000 75 1 -18.3000 65.7000 3 60 975 4.00000 4.50000 -18.0000 66.0000 TC 75 9 230
1995032S10074 1995 4 SI MM GAIL 1995-02-08 09:00:00 TS -18.3624 65.5240 main 835 798 P____P______P_ SH101995 -18.2575 65.6074 72 1 -18.5723 65.3572 3 60 975 -18.2575 65.6074 TC 72 9 236
1995032S10074 1995 4 SI MM GAIL 1995-02-08 12:00:00 TS -18.6000 65.1333 60 975 reunion main 788 752 O____O______O_ jtwc_sh SH101995 -18.5000 65.2000 70 1 -18.8000 65.0000 3 60 975 3.50000 4.50000 -18.5000 65.2000 TC 70 9 236
1995032S10074 1995 4 SI MM GAIL 1995-02-08 15:00:00 TS -18.8624 64.7316 main 739 693 P____P______P_ SH101995 -18.7573 64.8149 70 1 -19.0725 64.5651 3 60 975 -18.7573 64.8149 TC 70 9 238
1995032S10074 1995 4 SI MM GAIL 1995-02-08 18:00:00 TS -19.1000 64.3000 60 975 reunion main 693 647 O____O______O_ jtwc_sh SH101995 -19.0000 64.4000 70 1 -19.3000 64.1000 3 60 975 4.00000 4.50000 -19.0000 64.4000 TC 70 9 244
1995032S10074 1995 4 SI MM GAIL 1995-02-08 21:00:00 TS -19.2691 63.8314 main 637 594 P____P______P_ SH101995 -19.2000 63.9148 70 1 -19.4073 63.6646 3 60 975 -19.2000 63.9148 TC 70 10 250
1995032S10074 1995 4 SI MM GAIL 1995-02-09 00:00:00 TS -19.4333 63.3333 60 975 reunion main 583 538 O____O______O_ jtwc_sh SH101995 -19.4000 63.4000 70 1 -19.5000 63.2000 3 60 975 3.50000 4.50000 -19.4000 63.4000 TC 70 10 249
1995032S10074 1995 4 SI MM GAIL 1995-02-09 03:00:00 TS -19.6390 62.8264 main 528 471 P____P______P_ SH101995 -19.6348 62.9073 67 1 -19.6475 62.6646 3 57 977 -19.6348 62.9073 TC 67 11 244
1995032S10074 1995 4 SI MM GAIL 1995-02-09 06:00:00 TS -19.9000 62.3000 55 980 reunion main 471 417 O____O______O_ jtwc_sh SH101995 -19.9000 62.4000 65 1 -19.9000 62.1000 3 55 980 3.50000 4.00000 -19.9000 62.4000 TC 65 12 240
1995032S10074 1995 4 SI MM GAIL 1995-02-09 09:00:00 TS -20.2175 61.7424 main 406 355 P____P______P_ SH101995 -20.1700 61.8497 65 1 -20.3125 61.5278 3 55 980 -20.1700 61.8497 TC 65 13 236
1995032S10074 1995 4 SI MM GAIL 1995-02-09 12:00:00 TS -20.6000 61.2000 55 980 reunion main 355 311 O____O______O_ jtwc_sh SH101995 -20.5000 61.3000 65 1 -20.8000 61.0000 3 55 980 4.00000 4.00000 -20.5000 61.3000 TC 65 13 231
1995032S10074 1995 4 SI MM GAIL 1995-02-09 15:00:00 TS -21.0124 60.7031 main 311 287 P____P______P_ SH101995 -20.9050 60.7699 65 1 -21.2273 60.5695 3 57 977 -20.9050 60.7699 TC 65 13 224
1995032S10074 1995 4 SI MM GAIL 1995-02-09 18:00:00 TS -21.5000 60.2667 60 975 reunion main 292 279 O____O______O_ jtwc_sh SH101995 -21.4000 60.3000 65 1 -21.7000 60.2000 3 60 975 4.50000 4.50000 -21.4000 60.3000 TC 65 13 216
1995032S10074 1995 4 SI MM GAIL 1995-02-09 21:00:00 TS -22.0674 59.8741 main 289 281 P____P______P_ SH101995 -21.9624 59.8975 65 1 -22.2775 59.8275 3 60 975 -21.9624 59.8975 TC 65 14 208
1995032S10074 1995 4 SI MM GAIL 1995-02-10 00:00:00 TS -22.7000 59.5667 60 975 reunion main 314 314 O____O______O_ jtwc_sh SH101995 -22.6000 59.6000 65 1 -22.9000 59.5000 3 60 975 4.00000 4.50000 -22.6000 59.6000 TC 65 14 201
1995032S10074 1995 4 SI MM GAIL 1995-02-10 03:00:00 TS -23.3416 59.3332 main 353 353 P____P______P_ SH101995 -23.2699 59.4047 67 1 -23.4850 59.1902 3 60 975 -23.2699 59.4047 TC 67 14 194
1995032S10074 1995 4 SI MM GAIL 1995-02-10 06:00:00 TS -24.0333 59.2000 60 975 reunion main 420 420 O____O______O_ jtwc_sh SH101995 -24.0000 59.3000 70 1 -24.1000 59.0000 3 60 975 4.00000 4.50000 -24.0000 59.3000 TC 70 15 188
1995032S10074 1995 4 SI MM GAIL 1995-02-10 09:00:00 TS -24.7749 59.1139 main 501 501 P____P______P_ SH101995 -24.7774 59.1906 72 1 -24.7698 58.9603 3 57 977 -24.7774 59.1906 TC 72 15 182
1995032S10074 1995 4 SI MM GAIL 1995-02-10 12:00:00 TS -25.5667 59.1667 55 980 reunion main 590 590 O____O______O_ jtwc_sh SH101995 -25.6000 59.2000 75 1 -25.5000 59.1000 3 55 980 4.00000 4.00000 -25.6000 59.2000 TC 75 16 172
1995032S10074 1995 4 SI MM GAIL 1995-02-10 15:00:00 TS -26.3799 59.3704 main 677 677 P____P______P_ SH101995 -26.4348 59.3679 75 1 -26.2699 59.3754 3 55 980 -26.4348 59.3679 TC 75 18 163
1995032S10074 1995 4 SI MM GAIL 1995-02-10 18:00:00 TS -27.2333 59.7333 55 980 reunion main 768 768 O____O______O_ jtwc_sh SH101995 -27.3000 59.7000 75 1 -27.1000 59.8000 3 55 980 4.00000 4.00000 -27.3000 59.7000 TC 75 19 157
1995032S10074 1995 4 SI MM GAIL 1995-02-10 21:00:00 TS -28.1159 60.2053 main 879 879 P____P______P_ SH101995 -28.1850 60.1479 72 1 -27.9776 60.3202 3 55 980 -28.1850 60.1479 TC 72 20 153
1995032S10074 1995 4 SI MM GAIL 1995-02-11 00:00:00 TS -29.0333 60.7667 55 980 reunion main 996 996 O____O______O_ jtwc_sh SH101995 -29.1000 60.7000 70 1 -28.9000 60.9000 3 55 980 4.00000 4.00000 -29.1000 60.7000 TC 70 21 152
1995032S10074 1995 4 SI MM GAIL 1995-02-11 03:00:00 TS -29.9532 61.3363 main 1116 1116 P____P______P_ SH101995 -30.0275 61.2859 67 1 -29.8046 61.4371 3 55 980 -30.0275 61.2859 TC 67 22 152
1995032S10074 1995 4 SI MM GAIL 1995-02-11 06:00:00 TS -30.9333 61.9333 55 980 reunion main 1232 1232 O____O______O_ jtwc_sh SH101995 -31.0000 61.9000 65 1 -30.8000 62.0000 3 55 980 3.50000 4.00000 -31.0000 61.9000 TC 65 23 153
1995032S10074 1995 4 SI MM GAIL 1995-02-11 09:00:00 TS -32.0005 62.5365 main 1366 1366 P____P______P_ SH101995 -32.0271 62.4940 62 0 -31.9473 62.6215 3 52 982 -32.0271 62.4940 TC 62 24 155
1995032S10074 1995 4 SI MM GAIL 1995-02-11 12:00:00 TS -33.1273 63.1545 50 985 reunion main 1505 1505 O____O______O_ jtwc_sh SH101995 -33.1000 63.1000 60 0 -33.2000 63.3000 3 50 985 2.50000 4.00000 -33.1000 63.1000 TC 60 25 155
1995032S10074 1995 4 SI MM GAIL 1995-02-11 15:00:00 TS -34.2526 63.8068 main 1648 1545 P____P______P_ SH101995 -34.1924 63.7509 57 0 -34.4934 64.0300 3 -34.1924 63.7509 TC 57 25 154
1995032S10074 1995 4 SI MM GAIL 1995-02-11 18:00:00 MX -35.3556 64.4444 reunion main 1534 1425 O____O______O_ jtwc_sh SH101995 -35.3000 64.4000 55 0 -35.8000 64.8000 5 9.90000 -35.3000 64.4000 TC 55 24 156
1995032S10074 1995 4 SI MM GAIL 1995-02-11 21:00:00 TS -36.3995 65.0023 main 1414 1295 P___________P_ SH101995 -36.3995 65.0023 52 0 5 -36.3995 65.0023 TC 52 23 157
1995032S10074 1995 4 SI MM GAIL 1995-02-12 00:00:00 TS -37.5000 65.6000 main 1284 1154 O___________O_ jtwc_sh SH101995 -37.5000 65.6000 50 0 -37.5000 65.6000 TC 50 24 157
1995032S10074 1995 4 SI MM GAIL 1995-02-12 03:00:00 TS -38.6139 66.2007 main 1154 1034 P___________P_ SH101995 -38.6139 66.2007 47 0 -38.6139 66.2007 TC 47 24 155
1995032S10074 1995 4 SI MM GAIL 1995-02-12 06:00:00 TS -39.7000 66.9000 main 1023 905 O___________O_ jtwc_sh SH101995 -39.7000 66.9000 45 0 -39.7000 66.9000 TC 45 24 150
1995032S10074 1995 4 SI MM GAIL 1995-02-12 09:00:00 TS -40.7223 67.7856 main 904 800 P___________P_ SH101995 -40.7223 67.7856 42 0 -40.7223 67.7856 TC 42 25 144
1995032S10074 1995 4 SI MM GAIL 1995-02-12 12:00:00 TS -41.7000 68.8000 main 789 O___________O_ jtwc_sh SH101995 -41.7000 68.8000 40 0 -41.7000 68.8000 TC 40 25 142

IBTrACS Databaseについて

本データベースは、米国NOAAが公開する1842年以降の世界の熱帯低気圧のベストトラックデータアーカイブInternational Best Track Archive for Climate Stewardship (IBTrACS)を、ウェブで閲覧しやすい形式に変換したものです。

最終更新日:2021-10-25